sensor_id;sensor_type;location;lat;lon;timestamp;temperature;humidity
25342;DHT22;13298;48.792;9.154;2024-02-15T00:02:06;10.40;99.90
25342;DHT22;13298;48.792;9.154;2024-02-15T00:04:32;10.40;99.90
25342;DHT22;13298;48.792;9.154;2024-02-15T00:06:59;10.40;99.90
25342;DHT22;13298;48.792;9.154;2024-02-15T00:09:25;10.40;99.90
25342;DHT22;13298;48.792;9.154;2024-02-15T00:11:51;10.50;99.90
25342;DHT22;13298;48.792;9.154;2024-02-15T00:14:19;10.50;99.90
25342;DHT22;13298;48.792;9.154;2024-02-15T00:16:45;10.40;99.90
25342;DHT22;13298;48.792;9.154;2024-02-15T00:19:11;10.40;99.90
25342;DHT22;13298;48.792;9.154;2024-02-15T00:21:37;10.40;99.90
25342;DHT22;13298;48.792;9.154;2024-02-15T00:24:02;10.40;99.90
25342;DHT22;13298;48.792;9.154;2024-02-15T00:26:28;10.50;99.90
25342;DHT22;13298;48.792;9.154;2024-02-15T00:28:54;10.40;99.90
25342;DHT22;13298;48.792;9.154;2024-02-15T00:31:19;10.50;99.90
25342;DHT22;13298;48.792;9.154;2024-02-15T00:33:45;10.50;99.90
25342;DHT22;13298;48.792;9.154;2024-02-15T00:36:11;10.50;99.90
25342;DHT22;13298;48.792;9.154;2024-02-15T00:38:36;10.50;99.90
25342;DHT22;13298;48.792;9.154;2024-02-15T00:41:02;10.50;99.90
25342;DHT22;13298;48.792;9.154;2024-02-15T00:43:28;10.50;99.90
25342;DHT22;13298;48.792;9.154;2024-02-15T00:45:54;10.40;99.90
25342;DHT22;13298;48.792;9.154;2024-02-15T00:48:20;10.40;99.90
25342;DHT22;13298;48.792;9.154;2024-02-15T00:50:45;10.40;99.90
25342;DHT22;13298;48.792;9.154;2024-02-15T00:53:11;10.40;99.90
25342;DHT22;13298;48.792;9.154;2024-02-15T00:55:37;10.40;99.90
25342;DHT22;13298;48.792;9.154;2024-02-15T00:58:02;10.40;99.90
25342;DHT22;13298;48.792;9.154;2024-02-15T01:00:28;10.30;99.90
25342;DHT22;13298;48.792;9.154;2024-02-15T01:02:55;10.30;99.90
25342;DHT22;13298;48.792;9.154;2024-02-15T01:05:21;10.20;99.90
25342;DHT22;13298;48.792;9.154;2024-02-15T01:07:47;10.20;99.90
25342;DHT22;13298;48.792;9.154;2024-02-15T01:10:14;10.20;99.90
25342;DHT22;13298;48.792;9.154;2024-02-15T01:12:40;10.20;99.90
25342;DHT22;13298;48.792;9.154;2024-02-15T01:15:06;10.20;99.90
25342;DHT22;13298;48.792;9.154;2024-02-15T01:17:32;10.10;99.90
25342;DHT22;13298;48.792;9.154;2024-02-15T01:19:58;10.10;99.90
25342;DHT22;13298;48.792;9.154;2024-02-15T01:22:24;10.10;99.90
25342;DHT22;13298;48.792;9.154;2024-02-15T01:24:52;10.10;99.90
25342;DHT22;13298;48.792;9.154;2024-02-15T01:27:18;10.10;99.90
25342;DHT22;13298;48.792;9.154;2024-02-15T01:29:45;10.10;99.90
25342;DHT22;13298;48.792;9.154;2024-02-15T01:32:11;10.00;99.90
25342;DHT22;13298;48.792;9.154;2024-02-15T01:34:36;9.90;99.90
25342;DHT22;13298;48.792;9.154;2024-02-15T01:37:02;9.80;99.90
25342;DHT22;13298;48.792;9.154;2024-02-15T01:39:28;9.80;99.90
25342;DHT22;13298;48.792;9.154;2024-02-15T01:41:54;9.70;99.90
25342;DHT22;13298;48.792;9.154;2024-02-15T01:44:22;9.60;99.90
25342;DHT22;13298;48.792;9.154;2024-02-15T01:46:50;9.50;99.90
25342;DHT22;13298;48.792;9.154;2024-02-15T01:49:19;9.50;99.90
25342;DHT22;13298;48.792;9.154;2024-02-15T01:51:45;9.40;99.90
25342;DHT22;13298;48.792;9.154;2024-02-15T01:54:12;9.40;99.90
25342;DHT22;13298;48.792;9.154;2024-02-15T01:56:38;9.30;99.90
25342;DHT22;13298;48.792;9.154;2024-02-15T01:59:05;9.20;99.90
25342;DHT22;13298;48.792;9.154;2024-02-15T02:01:31;9.10;99.90
25342;DHT22;13298;48.792;9.154;2024-02-15T02:04:00;9.00;99.90
25342;DHT22;13298;48.792;9.154;2024-02-15T02:06:26;9.00;99.90
25342;DHT22;13298;48.792;9.154;2024-02-15T02:08:52;9.00;99.90
25342;DHT22;13298;48.792;9.154;2024-02-15T02:11:20;9.00;99.90
25342;DHT22;13298;48.792;9.154;2024-02-15T02:13:46;9.00;99.90
25342;DHT22;13298;48.792;9.154;2024-02-15T02:16:28;9.00;99.90
25342;DHT22;13298;48.792;9.154;2024-02-15T02:18:57;8.90;99.90
25342;DHT22;13298;48.792;9.154;2024-02-15T02:21:25;8.80;99.90
25342;DHT22;13298;48.792;9.154;2024-02-15T02:23:57;8.80;99.90
25342;DHT22;13298;48.792;9.154;2024-02-15T02:26:23;8.70;99.90
25342;DHT22;13298;48.792;9.154;2024-02-15T02:28:49;8.70;99.90
25342;DHT22;13298;48.792;9.154;2024-02-15T02:31:15;8.60;99.90
25342;DHT22;13298;48.792;9.154;2024-02-15T02:33:42;8.60;99.90
25342;DHT22;13298;48.792;9.154;2024-02-15T02:36:10;8.60;99.90
25342;DHT22;13298;48.792;9.154;2024-02-15T02:38:37;8.50;99.90
25342;DHT22;13298;48.792;9.154;2024-02-15T02:41:06;8.40;99.90
25342;DHT22;13298;48.792;9.154;2024-02-15T02:43:32;8.40;99.90
25342;DHT22;13298;48.792;9.154;2024-02-15T02:45:58;8.40;99.90
25342;DHT22;13298;48.792;9.154;2024-02-15T02:48:23;8.40;99.90
25342;DHT22;13298;48.792;9.154;2024-02-15T02:50:50;8.40;99.90
25342;DHT22;13298;48.792;9.154;2024-02-15T02:53:15;8.40;99.90
25342;DHT22;13298;48.792;9.154;2024-02-15T02:55:42;8.40;99.90
25342;DHT22;13298;48.792;9.154;2024-02-15T02:58:08;8.40;99.90
25342;DHT22;13298;48.792;9.154;2024-02-15T03:00:34;8.30;99.90
25342;DHT22;13298;48.792;9.154;2024-02-15T03:03:00;8.30;99.90
25342;DHT22;13298;48.792;9.154;2024-02-15T03:05:26;8.30;99.90
25342;DHT22;13298;48.792;9.154;2024-02-15T03:07:52;8.20;99.90
25342;DHT22;13298;48.792;9.154;2024-02-15T03:10:18;8.20;99.90
25342;DHT22;13298;48.792;9.154;2024-02-15T03:12:44;8.10;99.90
25342;DHT22;13298;48.792;9.154;2024-02-15T03:15:13;8.10;99.90
25342;DHT22;13298;48.792;9.154;2024-02-15T03:17:43;8.00;99.90
25342;DHT22;13298;48.792;9.154;2024-02-15T03:20:11;8.00;99.90
25342;DHT22;13298;48.792;9.154;2024-02-15T03:22:56;8.00;99.90
25342;DHT22;13298;48.792;9.154;2024-02-15T03:25:23;8.00;99.90
25342;DHT22;13298;48.792;9.154;2024-02-15T03:27:53;7.90;99.90
25342;DHT22;13298;48.792;9.154;2024-02-15T03:30:24;7.90;99.90
25342;DHT22;13298;48.792;9.154;2024-02-15T03:32:52;7.80;99.90
25342;DHT22;13298;48.792;9.154;2024-02-15T03:35:19;7.80;99.90
25342;DHT22;13298;48.792;9.154;2024-02-15T03:37:45;7.70;99.90
25342;DHT22;13298;48.792;9.154;2024-02-15T03:40:11;7.70;99.90
25342;DHT22;13298;48.792;9.154;2024-02-15T03:42:37;7.70;99.90
25342;DHT22;13298;48.792;9.154;2024-02-15T03:45:06;7.70;99.90
25342;DHT22;13298;48.792;9.154;2024-02-15T03:47:32;7.70;99.90
25342;DHT22;13298;48.792;9.154;2024-02-15T03:50:02;7.70;99.90
25342;DHT22;13298;48.792;9.154;2024-02-15T03:52:28;7.80;99.90
25342;DHT22;13298;48.792;9.154;2024-02-15T03:54:57;7.80;99.90
25342;DHT22;13298;48.792;9.154;2024-02-15T03:57:24;7.90;99.90
25342;DHT22;13298;48.792;9.154;2024-02-15T03:59:50;8.00;99.90
25342;DHT22;13298;48.792;9.154;2024-02-15T04:02:24;8.10;99.90
25342;DHT22;13298;48.792;9.154;2024-02-15T04:04:54;8.20;99.90
25342;DHT22;13298;48.792;9.154;2024-02-15T04:07:21;8.30;99.90
25342;DHT22;13298;48.792;9.154;2024-02-15T04:09:52;8.40;99.90
25342;DHT22;13298;48.792;9.154;2024-02-15T04:12:18;8.50;99.90
25342;DHT22;13298;48.792;9.154;2024-02-15T04:14:44;8.50;99.90
25342;DHT22;13298;48.792;9.154;2024-02-15T04:17:13;8.60;99.90
25342;DHT22;13298;48.792;9.154;2024-02-15T04:19:45;8.70;99.90
25342;DHT22;13298;48.792;9.154;2024-02-15T04:22:19;8.80;99.90
25342;DHT22;13298;48.792;9.154;2024-02-15T04:24:45;8.80;99.90
25342;DHT22;13298;48.792;9.154;2024-02-15T04:27:11;8.90;99.90
25342;DHT22;13298;48.792;9.154;2024-02-15T04:29:37;9.00;99.90
25342;DHT22;13298;48.792;9.154;2024-02-15T04:32:05;9.10;99.90
25342;DHT22;13298;48.792;9.154;2024-02-15T04:34:35;9.10;99.90
25342;DHT22;13298;48.792;9.154;2024-02-15T04:37:02;9.10;99.90
25342;DHT22;13298;48.792;9.154;2024-02-15T04:39:32;9.20;99.90
25342;DHT22;13298;48.792;9.154;2024-02-15T04:41:58;9.20;99.90
25342;DHT22;13298;48.792;9.154;2024-02-15T04:44:25;9.20;99.90
25342;DHT22;13298;48.792;9.154;2024-02-15T04:46:53;9.30;99.90
25342;DHT22;13298;48.792;9.154;2024-02-15T04:49:19;9.30;99.90
25342;DHT22;13298;48.792;9.154;2024-02-15T04:51:46;9.30;99.90
25342;DHT22;13298;48.792;9.154;2024-02-15T04:54:13;9.40;99.90
25342;DHT22;13298;48.792;9.154;2024-02-15T04:56:40;9.40;99.90
25342;DHT22;13298;48.792;9.154;2024-02-15T04:59:06;9.40;99.90
25342;DHT22;13298;48.792;9.154;2024-02-15T05:01:41;9.40;99.90
25342;DHT22;13298;48.792;9.154;2024-02-15T05:04:11;9.40;99.90
25342;DHT22;13298;48.792;9.154;2024-02-15T05:06:37;9.50;99.90
25342;DHT22;13298;48.792;9.154;2024-02-15T05:09:04;9.50;99.90
25342;DHT22;13298;48.792;9.154;2024-02-15T05:11:33;9.50;99.90
25342;DHT22;13298;48.792;9.154;2024-02-15T05:14:03;9.60;99.90
25342;DHT22;13298;48.792;9.154;2024-02-15T05:16:35;9.60;99.90
25342;DHT22;13298;48.792;9.154;2024-02-15T05:19:10;9.60;99.90
25342;DHT22;13298;48.792;9.154;2024-02-15T05:21:38;9.60;99.90
25342;DHT22;13298;48.792;9.154;2024-02-15T05:24:05;9.60;99.90
25342;DHT22;13298;48.792;9.154;2024-02-15T05:26:31;9.60;99.90
25342;DHT22;13298;48.792;9.154;2024-02-15T05:28:56;9.60;99.90
25342;DHT22;13298;48.792;9.154;2024-02-15T05:31:22;9.60;99.90
25342;DHT22;13298;48.792;9.154;2024-02-15T05:33:52;9.60;99.90
25342;DHT22;13298;48.792;9.154;2024-02-15T05:36:20;9.60;99.90
25342;DHT22;13298;48.792;9.154;2024-02-15T05:38:49;9.60;99.90
25342;DHT22;13298;48.792;9.154;2024-02-15T05:41:16;9.60;99.90
25342;DHT22;13298;48.792;9.154;2024-02-15T05:43:42;9.70;99.90
25342;DHT22;13298;48.792;9.154;2024-02-15T05:46:09;9.70;99.90
25342;DHT22;13298;48.792;9.154;2024-02-15T05:48:36;9.70;99.90
25342;DHT22;13298;48.792;9.154;2024-02-15T05:51:04;9.60;99.90
25342;DHT22;13298;48.792;9.154;2024-02-15T05:53:31;9.60;99.90
25342;DHT22;13298;48.792;9.154;2024-02-15T05:56:02;9.60;99.90
25342;DHT22;13298;48.792;9.154;2024-02-15T05:58:32;9.60;99.90
25342;DHT22;13298;48.792;9.154;2024-02-15T06:01:02;9.60;99.90
25342;DHT22;13298;48.792;9.154;2024-02-15T06:03:32;9.60;99.90
25342;DHT22;13298;48.792;9.154;2024-02-15T06:06:02;9.70;99.90
25342;DHT22;13298;48.792;9.154;2024-02-15T06:08:33;9.60;99.90
25342;DHT22;13298;48.792;9.154;2024-02-15T06:10:58;9.60;99.90
25342;DHT22;13298;48.792;9.154;2024-02-15T06:13:26;9.60;99.90
25342;DHT22;13298;48.792;9.154;2024-02-15T06:15:52;9.60;99.90
25342;DHT22;13298;48.792;9.154;2024-02-15T06:18:23;9.60;99.90
25342;DHT22;13298;48.792;9.154;2024-02-15T06:20:51;9.60;99.90
25342;DHT22;13298;48.792;9.154;2024-02-15T06:23:17;9.50;99.90
25342;DHT22;13298;48.792;9.154;2024-02-15T06:25:46;9.50;99.90
25342;DHT22;13298;48.792;9.154;2024-02-15T06:28:16;9.40;99.90
25342;DHT22;13298;48.792;9.154;2024-02-15T06:31:04;9.40;99.90
25342;DHT22;13298;48.792;9.154;2024-02-15T06:33:49;9.30;99.90
25342;DHT22;13298;48.792;9.154;2024-02-15T06:36:33;9.20;99.90
25342;DHT22;13298;48.792;9.154;2024-02-15T06:39:17;9.00;99.90
25342;DHT22;13298;48.792;9.154;2024-02-15T06:42:02;9.00;99.90
25342;DHT22;13298;48.792;9.154;2024-02-15T06:44:28;8.80;99.90
25342;DHT22;13298;48.792;9.154;2024-02-15T06:46:54;8.80;99.90
25342;DHT22;13298;48.792;9.154;2024-02-15T06:49:21;8.80;99.90
25342;DHT22;13298;48.792;9.154;2024-02-15T06:51:49;8.70;99.90
25342;DHT22;13298;48.792;9.154;2024-02-15T06:54:15;8.70;99.90
25342;DHT22;13298;48.792;9.154;2024-02-15T06:56:42;8.70;99.90
25342;DHT22;13298;48.792;9.154;2024-02-15T06:59:10;8.70;99.90
25342;DHT22;13298;48.792;9.154;2024-02-15T07:01:35;8.70;99.90
25342;DHT22;13298;48.792;9.154;2024-02-15T07:04:03;8.70;99.90
25342;DHT22;13298;48.792;9.154;2024-02-15T07:06:29;8.70;99.90
25342;DHT22;13298;48.792;9.154;2024-02-15T07:08:54;8.70;99.90
25342;DHT22;13298;48.792;9.154;2024-02-15T07:11:23;8.70;99.90
25342;DHT22;13298;48.792;9.154;2024-02-15T07:13:49;8.70;99.90
25342;DHT22;13298;48.792;9.154;2024-02-15T07:16:18;8.80;99.90
25342;DHT22;13298;48.792;9.154;2024-02-15T07:18:44;8.90;99.90
25342;DHT22;13298;48.792;9.154;2024-02-15T07:21:11;9.00;99.90
25342;DHT22;13298;48.792;9.154;2024-02-15T07:23:39;9.10;99.90
25342;DHT22;13298;48.792;9.154;2024-02-15T07:26:06;9.20;99.90
25342;DHT22;13298;48.792;9.154;2024-02-15T07:28:33;9.20;99.90
25342;DHT22;13298;48.792;9.154;2024-02-15T07:30:59;9.30;99.90
25342;DHT22;13298;48.792;9.154;2024-02-15T07:33:28;9.40;99.90
25342;DHT22;13298;48.792;9.154;2024-02-15T07:35:54;9.40;99.90
25342;DHT22;13298;48.792;9.154;2024-02-15T07:38:22;9.50;99.90
25342;DHT22;13298;48.792;9.154;2024-02-15T07:40:48;9.60;99.90
25342;DHT22;13298;48.792;9.154;2024-02-15T07:43:15;9.70;99.90
25342;DHT22;13298;48.792;9.154;2024-02-15T07:45:41;9.80;99.90
25342;DHT22;13298;48.792;9.154;2024-02-15T07:48:07;10.00;99.90
25342;DHT22;13298;48.792;9.154;2024-02-15T07:50:33;10.20;99.90
25342;DHT22;13298;48.792;9.154;2024-02-15T07:52:59;10.30;99.90
25342;DHT22;13298;48.792;9.154;2024-02-15T07:55:24;10.50;99.90
25342;DHT22;13298;48.792;9.154;2024-02-15T07:57:51;10.60;99.90
25342;DHT22;13298;48.792;9.154;2024-02-15T08:00:18;10.80;99.90
25342;DHT22;13298;48.792;9.154;2024-02-15T08:02:44;10.90;99.90
25342;DHT22;13298;48.792;9.154;2024-02-15T08:05:11;11.10;99.90
25342;DHT22;13298;48.792;9.154;2024-02-15T08:07:40;11.10;99.90
25342;DHT22;13298;48.792;9.154;2024-02-15T08:10:07;11.20;99.90
25342;DHT22;13298;48.792;9.154;2024-02-15T08:12:47;11.30;99.90
25342;DHT22;13298;48.792;9.154;2024-02-15T08:15:17;11.30;99.90
25342;DHT22;13298;48.792;9.154;2024-02-15T08:17:44;11.30;99.90
25342;DHT22;13298;48.792;9.154;2024-02-15T08:20:14;11.40;99.90
25342;DHT22;13298;48.792;9.154;2024-02-15T08:22:40;11.40;99.90
25342;DHT22;13298;48.792;9.154;2024-02-15T08:25:10;11.40;99.90
25342;DHT22;13298;48.792;9.154;2024-02-15T08:27:41;11.40;99.90
25342;DHT22;13298;48.792;9.154;2024-02-15T08:30:12;11.60;99.90
25342;DHT22;13298;48.792;9.154;2024-02-15T08:32:39;11.60;99.90
25342;DHT22;13298;48.792;9.154;2024-02-15T08:35:07;11.80;99.90
25342;DHT22;13298;48.792;9.154;2024-02-15T08:37:36;11.90;99.90
25342;DHT22;13298;48.792;9.154;2024-02-15T08:40:08;12.00;99.90
25342;DHT22;13298;48.792;9.154;2024-02-15T08:42:42;12.10;99.90
25342;DHT22;13298;48.792;9.154;2024-02-15T08:45:09;12.20;99.90
25342;DHT22;13298;48.792;9.154;2024-02-15T08:47:42;12.20;99.90
25342;DHT22;13298;48.792;9.154;2024-02-15T08:50:12;12.20;99.90
25342;DHT22;13298;48.792;9.154;2024-02-15T08:52:38;12.30;99.90
25342;DHT22;13298;48.792;9.154;2024-02-15T08:55:09;12.30;99.90
25342;DHT22;13298;48.792;9.154;2024-02-15T08:57:36;12.30;99.90
25342;DHT22;13298;48.792;9.154;2024-02-15T09:00:03;12.40;99.90
25342;DHT22;13298;48.792;9.154;2024-02-15T09:02:45;12.40;99.90
25342;DHT22;13298;48.792;9.154;2024-02-15T09:05:12;12.40;99.90
25342;DHT22;13298;48.792;9.154;2024-02-15T09:07:40;12.40;99.90
25342;DHT22;13298;48.792;9.154;2024-02-15T09:10:15;12.40;99.90
25342;DHT22;13298;48.792;9.154;2024-02-15T09:12:45;12.50;99.90
25342;DHT22;13298;48.792;9.154;2024-02-15T09:15:14;12.50;99.90
25342;DHT22;13298;48.792;9.154;2024-02-15T09:17:41;12.50;99.90
25342;DHT22;13298;48.792;9.154;2024-02-15T09:20:10;12.60;99.90
25342;DHT22;13298;48.792;9.154;2024-02-15T09:22:50;12.60;99.90
25342;DHT22;13298;48.792;9.154;2024-02-15T09:25:17;12.50;99.90
25342;DHT22;13298;48.792;9.154;2024-02-15T09:27:43;12.50;99.90
25342;DHT22;13298;48.792;9.154;2024-02-15T09:30:10;12.50;99.90
25342;DHT22;13298;48.792;9.154;2024-02-15T09:32:37;12.40;99.90
25342;DHT22;13298;48.792;9.154;2024-02-15T09:35:07;12.40;99.90
25342;DHT22;13298;48.792;9.154;2024-02-15T09:37:38;12.30;99.90
25342;DHT22;13298;48.792;9.154;2024-02-15T09:40:14;12.30;99.90
25342;DHT22;13298;48.792;9.154;2024-02-15T09:42:41;12.30;99.90
25342;DHT22;13298;48.792;9.154;2024-02-15T09:45:10;12.30;99.90
25342;DHT22;13298;48.792;9.154;2024-02-15T09:47:41;12.30;99.90
25342;DHT22;13298;48.792;9.154;2024-02-15T09:50:12;12.30;99.90
25342;DHT22;13298;48.792;9.154;2024-02-15T09:52:59;12.30;99.90
25342;DHT22;13298;48.792;9.154;2024-02-15T09:55:28;12.30;99.90
25342;DHT22;13298;48.792;9.154;2024-02-15T09:57:55;12.30;99.90
25342;DHT22;13298;48.792;9.154;2024-02-15T10:00:20;12.30;99.90
25342;DHT22;13298;48.792;9.154;2024-02-15T10:02:53;12.30;99.90
25342;DHT22;13298;48.792;9.154;2024-02-15T10:05:20;12.30;99.90
25342;DHT22;13298;48.792;9.154;2024-02-15T10:07:46;12.30;99.90
25342;DHT22;13298;48.792;9.154;2024-02-15T10:10:25;12.30;99.90
25342;DHT22;13298;48.792;9.154;2024-02-15T10:12:55;12.30;99.90
25342;DHT22;13298;48.792;9.154;2024-02-15T10:15:37;12.40;99.90
25342;DHT22;13298;48.792;9.154;2024-02-15T10:18:14;12.40;99.90
25342;DHT22;13298;48.792;9.154;2024-02-15T10:20:41;12.50;99.90
25342;DHT22;13298;48.792;9.154;2024-02-15T10:23:14;12.50;99.90
25342;DHT22;13298;48.792;9.154;2024-02-15T10:25:43;12.60;99.90
25342;DHT22;13298;48.792;9.154;2024-02-15T10:28:14;12.70;99.90
25342;DHT22;13298;48.792;9.154;2024-02-15T10:30:44;12.70;99.90
25342;DHT22;13298;48.792;9.154;2024-02-15T10:33:19;12.80;99.90
25342;DHT22;13298;48.792;9.154;2024-02-15T10:35:46;12.90;99.90
25342;DHT22;13298;48.792;9.154;2024-02-15T10:38:12;12.90;99.90
25342;DHT22;13298;48.792;9.154;2024-02-15T10:40:39;12.90;99.90
25342;DHT22;13298;48.792;9.154;2024-02-15T10:43:09;13.00;99.90
25342;DHT22;13298;48.792;9.154;2024-02-15T10:45:39;13.10;99.90
25342;DHT22;13298;48.792;9.154;2024-02-15T10:48:10;13.10;99.90
25342;DHT22;13298;48.792;9.154;2024-02-15T10:50:42;13.20;99.90
25342;DHT22;13298;48.792;9.154;2024-02-15T10:53:31;13.30;99.90
25342;DHT22;13298;48.792;9.154;2024-02-15T10:56:13;13.30;99.90
25342;DHT22;13298;48.792;9.154;2024-02-15T10:58:47;13.40;99.90
25342;DHT22;13298;48.792;9.154;2024-02-15T11:01:18;13.50;99.90
25342;DHT22;13298;48.792;9.154;2024-02-15T11:03:50;13.60;99.90
25342;DHT22;13298;48.792;9.154;2024-02-15T11:06:24;13.70;99.90
25342;DHT22;13298;48.792;9.154;2024-02-15T11:08:52;13.70;99.90
25342;DHT22;13298;48.792;9.154;2024-02-15T11:11:18;13.80;99.90
25342;DHT22;13298;48.792;9.154;2024-02-15T11:13:48;13.90;99.90
25342;DHT22;13298;48.792;9.154;2024-02-15T11:16:39;13.90;99.90
25342;DHT22;13298;48.792;9.154;2024-02-15T11:19:06;13.90;99.90
25342;DHT22;13298;48.792;9.154;2024-02-15T11:21:54;13.90;99.90
25342;DHT22;13298;48.792;9.154;2024-02-15T11:24:29;14.00;99.90
25342;DHT22;13298;48.792;9.154;2024-02-15T11:27:02;14.00;99.90
25342;DHT22;13298;48.792;9.154;2024-02-15T11:32:43;14.10;99.90
25342;DHT22;13298;48.792;9.154;2024-02-15T11:35:23;14.10;99.90
25342;DHT22;13298;48.792;9.154;2024-02-15T11:46:18;14.40;99.90
25342;DHT22;13298;48.792;9.154;2024-02-15T11:48:48;14.40;99.90
25342;DHT22;13298;48.792;9.154;2024-02-15T11:51:43;14.50;99.90
25342;DHT22;13298;48.792;9.154;2024-02-15T11:54:10;14.60;99.90
25342;DHT22;13298;48.792;9.154;2024-02-15T11:56:56;14.70;99.90
25342;DHT22;13298;48.792;9.154;2024-02-15T11:59:57;14.80;99.90
25342;DHT22;13298;48.792;9.154;2024-02-15T12:03:00;14.80;99.90
25342;DHT22;13298;48.792;9.154;2024-02-15T12:05:44;14.90;99.90
25342;DHT22;13298;48.792;9.154;2024-02-15T12:08:28;14.90;99.90
25342;DHT22;13298;48.792;9.154;2024-02-15T12:11:14;14.90;99.90
25342;DHT22;13298;48.792;9.154;2024-02-15T12:13:58;15.00;99.90
25342;DHT22;13298;48.792;9.154;2024-02-15T12:16:42;15.10;99.90
25342;DHT22;13298;48.792;9.154;2024-02-15T12:19:27;15.10;99.90
25342;DHT22;13298;48.792;9.154;2024-02-15T12:21:53;15.20;99.90
25342;DHT22;13298;48.792;9.154;2024-02-15T12:24:19;15.30;99.90
25342;DHT22;13298;48.792;9.154;2024-02-15T12:26:50;15.40;99.90
25342;DHT22;13298;48.792;9.154;2024-02-15T12:29:17;15.50;99.90
25342;DHT22;13298;48.792;9.154;2024-02-15T12:31:43;15.50;99.90
25342;DHT22;13298;48.792;9.154;2024-02-15T12:34:10;15.60;99.90
25342;DHT22;13298;48.792;9.154;2024-02-15T12:36:36;15.70;99.90
25342;DHT22;13298;48.792;9.154;2024-02-15T12:39:04;15.80;99.90
25342;DHT22;13298;48.792;9.154;2024-02-15T12:41:48;15.90;99.90
25342;DHT22;13298;48.792;9.154;2024-02-15T12:44:18;16.00;99.90
25342;DHT22;13298;48.792;9.154;2024-02-15T12:46:54;16.20;99.90
25342;DHT22;13298;48.792;9.154;2024-02-15T12:51:53;16.40;99.90
25342;DHT22;13298;48.792;9.154;2024-02-15T12:54:23;16.50;99.90
25342;DHT22;13298;48.792;9.154;2024-02-15T12:56:49;16.60;99.90
25342;DHT22;13298;48.792;9.154;2024-02-15T12:59:18;16.60;99.90
25342;DHT22;13298;48.792;9.154;2024-02-15T13:01:47;16.60;99.90
25342;DHT22;13298;48.792;9.154;2024-02-15T13:04:25;16.60;99.90
25342;DHT22;13298;48.792;9.154;2024-02-15T13:06:51;16.60;99.90
25342;DHT22;13298;48.792;9.154;2024-02-15T13:09:17;16.60;99.90
25342;DHT22;13298;48.792;9.154;2024-02-15T13:11:44;16.50;99.90
25342;DHT22;13298;48.792;9.154;2024-02-15T13:14:12;16.40;99.90
25342;DHT22;13298;48.792;9.154;2024-02-15T13:16:38;16.50;99.90
25342;DHT22;13298;48.792;9.154;2024-02-15T13:19:04;16.50;99.90
25342;DHT22;13298;48.792;9.154;2024-02-15T13:21:32;16.50;99.90
25342;DHT22;13298;48.792;9.154;2024-02-15T13:23:59;16.50;99.90
25342;DHT22;13298;48.792;9.154;2024-02-15T13:26:30;16.40;99.90
25342;DHT22;13298;48.792;9.154;2024-02-15T13:28:58;16.40;99.90
25342;DHT22;13298;48.792;9.154;2024-02-15T13:31:23;16.40;99.90
25342;DHT22;13298;48.792;9.154;2024-02-15T13:33:49;16.50;99.90
25342;DHT22;13298;48.792;9.154;2024-02-15T13:36:15;16.50;99.90
25342;DHT22;13298;48.792;9.154;2024-02-15T13:38:41;16.60;99.90
25342;DHT22;13298;48.792;9.154;2024-02-15T13:41:07;16.60;99.90
25342;DHT22;13298;48.792;9.154;2024-02-15T13:43:34;16.70;99.90
25342;DHT22;13298;48.792;9.154;2024-02-15T13:46:00;16.80;99.90
25342;DHT22;13298;48.792;9.154;2024-02-15T13:48:30;16.80;99.90
25342;DHT22;13298;48.792;9.154;2024-02-15T13:50:56;16.90;99.90
25342;DHT22;13298;48.792;9.154;2024-02-15T13:53:23;16.90;99.90
25342;DHT22;13298;48.792;9.154;2024-02-15T13:55:49;16.90;99.90
25342;DHT22;13298;48.792;9.154;2024-02-15T13:58:17;16.90;99.90
25342;DHT22;13298;48.792;9.154;2024-02-15T14:00:43;16.90;99.90
25342;DHT22;13298;48.792;9.154;2024-02-15T14:03:10;16.90;99.90
25342;DHT22;13298;48.792;9.154;2024-02-15T14:05:37;16.90;99.90
25342;DHT22;13298;48.792;9.154;2024-02-15T14:08:05;16.80;99.90
25342;DHT22;13298;48.792;9.154;2024-02-15T14:10:32;16.80;99.90
25342;DHT22;13298;48.792;9.154;2024-02-15T14:13:02;16.70;99.90
25342;DHT22;13298;48.792;9.154;2024-02-15T14:15:33;16.70;99.90
25342;DHT22;13298;48.792;9.154;2024-02-15T14:18:05;16.60;99.90
25342;DHT22;13298;48.792;9.154;2024-02-15T14:20:32;16.70;99.90
25342;DHT22;13298;48.792;9.154;2024-02-15T14:22:58;16.70;99.90
25342;DHT22;13298;48.792;9.154;2024-02-15T14:25:28;16.60;99.90
25342;DHT22;13298;48.792;9.154;2024-02-15T14:27:56;16.60;99.90
25342;DHT22;13298;48.792;9.154;2024-02-15T14:30:23;16.60;99.90
25342;DHT22;13298;48.792;9.154;2024-02-15T14:33:08;16.60;99.90
25342;DHT22;13298;48.792;9.154;2024-02-15T14:35:37;16.60;99.90
25342;DHT22;13298;48.792;9.154;2024-02-15T14:38:06;16.60;99.90
25342;DHT22;13298;48.792;9.154;2024-02-15T14:40:41;16.60;99.90
25342;DHT22;13298;48.792;9.154;2024-02-15T14:43:08;16.60;99.90
25342;DHT22;13298;48.792;9.154;2024-02-15T14:45:38;16.50;99.90
25342;DHT22;13298;48.792;9.154;2024-02-15T14:48:06;16.50;99.90
25342;DHT22;13298;48.792;9.154;2024-02-15T14:50:35;16.50;99.90
25342;DHT22;13298;48.792;9.154;2024-02-15T14:53:01;16.50;99.90
25342;DHT22;13298;48.792;9.154;2024-02-15T14:55:27;16.50;99.90
25342;DHT22;13298;48.792;9.154;2024-02-15T14:57:58;16.50;99.90
25342;DHT22;13298;48.792;9.154;2024-02-15T15:00:24;16.40;99.90
25342;DHT22;13298;48.792;9.154;2024-02-15T15:02:50;16.40;99.90
25342;DHT22;13298;48.792;9.154;2024-02-15T15:05:16;16.40;99.90
25342;DHT22;13298;48.792;9.154;2024-02-15T15:08:00;16.40;99.90
25342;DHT22;13298;48.792;9.154;2024-02-15T15:10:46;16.40;99.90
25342;DHT22;13298;48.792;9.154;2024-02-15T15:13:33;16.40;99.90
25342;DHT22;13298;48.792;9.154;2024-02-15T15:16:00;16.40;99.90
25342;DHT22;13298;48.792;9.154;2024-02-15T15:18:28;16.30;99.90
25342;DHT22;13298;48.792;9.154;2024-02-15T15:20:56;16.30;99.90
25342;DHT22;13298;48.792;9.154;2024-02-15T15:23:35;16.20;99.90
25342;DHT22;13298;48.792;9.154;2024-02-15T15:26:01;16.10;99.90
25342;DHT22;13298;48.792;9.154;2024-02-15T15:28:27;16.00;99.90
25342;DHT22;13298;48.792;9.154;2024-02-15T15:30:53;16.00;99.90
25342;DHT22;13298;48.792;9.154;2024-02-15T15:33:20;15.80;99.90
25342;DHT22;13298;48.792;9.154;2024-02-15T15:35:59;15.70;99.90
25342;DHT22;13298;48.792;9.154;2024-02-15T15:38:25;15.70;99.90
25342;DHT22;13298;48.792;9.154;2024-02-15T15:40:54;15.60;99.90
25342;DHT22;13298;48.792;9.154;2024-02-15T15:43:19;15.50;99.90
25342;DHT22;13298;48.792;9.154;2024-02-15T15:45:46;15.40;99.90
25342;DHT22;13298;48.792;9.154;2024-02-15T15:48:13;15.30;99.90
25342;DHT22;13298;48.792;9.154;2024-02-15T15:50:39;15.20;99.90
25342;DHT22;13298;48.792;9.154;2024-02-15T15:53:06;15.10;99.90
25342;DHT22;13298;48.792;9.154;2024-02-15T15:55:35;15.00;99.90
25342;DHT22;13298;48.792;9.154;2024-02-15T15:58:01;14.90;99.90
25342;DHT22;13298;48.792;9.154;2024-02-15T16:00:26;14.90;99.90
25342;DHT22;13298;48.792;9.154;2024-02-15T16:02:52;14.70;99.90
25342;DHT22;13298;48.792;9.154;2024-02-15T16:05:21;14.60;99.90